createdAt,value
2018-07-27T00:00:09.893Z,100691.44
2018-07-27T00:02:39.406Z,100687.41
2018-07-27T00:05:08.741Z,100679.42
2018-07-27T00:07:37.871Z,100683.92
2018-07-27T00:10:07.213Z,100681.54
2018-07-27T00:12:36.361Z,100683.81
2018-07-27T00:15:05.504Z,100685.33
2018-07-27T00:17:34.617Z,100679.66
2018-07-27T00:20:03.813Z,100677.70
2018-07-27T00:22:32.950Z,100686.50
2018-07-27T00:25:02.082Z,100686.30
2018-07-27T00:27:31.214Z,100689.31
2018-07-27T00:30:00.362Z,100682.08
2018-07-27T00:32:29.573Z,100684.05
2018-07-27T00:34:58.961Z,100673.24
2018-07-27T00:37:28.101Z,100681.27
2018-07-27T00:39:57.208Z,100669.16
2018-07-27T00:42:26.339Z,100671.62
2018-07-27T00:44:55.452Z,100673.34
2018-07-27T00:47:24.571Z,100675.66
2018-07-27T00:49:53.706Z,100679.19
2018-07-27T00:52:22.814Z,100674.87
2018-07-27T00:54:51.986Z,100667.59
2018-07-27T00:57:21.077Z,100667.06
2018-07-27T00:59:50.257Z,100675.02
2018-07-27T01:02:19.377Z,100678.03
2018-07-27T01:04:48.740Z,100664.13
2018-07-27T01:07:17.857Z,100667.57
2018-07-27T01:09:46.981Z,100671.59
2018-07-27T01:12:16.125Z,100668.92
2018-07-27T01:14:45.252Z,100678.53
2018-07-27T01:17:14.412Z,100673.98
2018-07-27T01:19:43.530Z,100672.97
2018-07-27T01:22:12.794Z,100674.92
2018-07-27T01:24:41.927Z,100670.29
2018-07-27T01:27:11.129Z,100664.77
2018-07-27T01:29:40.242Z,100668.55
2018-07-27T01:32:09.381Z,100661.59
2018-07-27T01:34:38.513Z,100663.67
2018-07-27T01:37:07.701Z,100667.14
2018-07-27T01:39:36.893Z,100662.84
2018-07-27T01:42:06.026Z,100662.71
2018-07-27T01:44:35.145Z,100662.60
2018-07-27T01:47:04.283Z,100667.63
2018-07-27T01:49:33.397Z,100665.59
2018-07-27T01:52:02.517Z,100666.09
2018-07-27T01:54:31.695Z,100667.39
2018-07-27T01:57:00.814Z,100666.74
2018-07-27T01:59:30.085Z,100664.08
2018-07-27T02:01:59.295Z,100673.34
2018-07-27T02:04:28.453Z,100675.20
2018-07-27T02:06:57.601Z,100671.45
2018-07-27T02:09:26.718Z,100662.69
2018-07-27T02:11:55.852Z,100665.23
2018-07-27T02:14:24.965Z,100666.72
2018-07-27T02:16:54.093Z,100661.80
2018-07-27T02:19:23.237Z,100661.59
2018-07-27T02:21:52.409Z,100661.83
2018-07-27T02:24:21.582Z,100659.77
2018-07-27T02:26:50.942Z,100656.41
2018-07-27T02:29:20.071Z,100652.69
2018-07-27T02:31:49.198Z,100654.70
2018-07-27T02:34:18.350Z,100647.66
2018-07-27T02:36:47.486Z,100646.97
2018-07-27T02:39:16.634Z,100647.19
2018-07-27T02:41:45.791Z,100639.45
2018-07-27T02:44:14.924Z,100645.26
2018-07-27T02:46:44.050Z,100643.23
2018-07-27T02:49:13.169Z,100637.86
2018-07-27T02:51:42.314Z,100643.05
2018-07-27T02:54:11.455Z,100640.91
2018-07-27T02:56:40.557Z,100640.05
2018-07-27T02:59:10.107Z,100632.89
2018-07-27T03:01:39.282Z,100640.20
2018-07-27T03:04:08.489Z,100641.50
2018-07-27T03:06:37.605Z,100643.66
2018-07-27T03:09:12.394Z,100639.11
2018-07-27T03:11:41.554Z,100637.75
2018-07-27T03:14:10.715Z,100635.05
2018-07-27T03:16:39.826Z,100639.48
2018-07-27T03:19:08.970Z,100642.44
2018-07-27T03:21:38.077Z,100634.40
2018-07-27T03:24:07.223Z,100631.67
2018-07-27T03:26:36.363Z,100634.33
2018-07-27T03:29:05.577Z,100632.68
2018-07-27T03:31:34.706Z,100631.14
2018-07-27T03:34:03.939Z,100635.73
2018-07-27T03:36:33.017Z,100628.19
2018-07-27T03:39:02.205Z,100633.30
2018-07-27T03:41:31.358Z,100634.98
2018-07-27T03:44:00.502Z,100633.22
2018-07-27T03:46:29.670Z,100634.05
2018-07-27T03:48:58.890Z,100635.09
2018-07-27T03:51:28.052Z,100639.31
2018-07-27T03:53:57.269Z,100631.59
2018-07-27T03:56:26.440Z,100629.97
2018-07-27T03:58:55.586Z,100633.74
2018-07-27T04:01:24.779Z,100633.97
2018-07-27T04:03:53.965Z,100634.69
2018-07-27T04:06:23.123Z,100630.03
2018-07-27T04:08:52.166Z,100631.47
2018-07-27T04:11:21.312Z,100635.05
2018-07-27T04:13:50.489Z,100634.01
2018-07-27T04:16:19.665Z,100635.81
2018-07-27T04:18:48.798Z,100638.13
2018-07-27T04:21:17.929Z,100640.19
2018-07-27T04:23:47.078Z,100639.04
2018-07-27T04:26:16.299Z,100650.44
2018-07-27T04:28:45.369Z,100647.09
2018-07-27T04:31:14.546Z,100649.30
2018-07-27T04:33:43.712Z,100647.64
2018-07-27T04:36:12.837Z,100641.73
2018-07-27T04:38:41.945Z,100644.78
2018-07-27T04:41:11.117Z,100647.73
2018-07-27T04:43:40.255Z,100644.20
2018-07-27T04:46:09.582Z,100644.80
2018-07-27T04:48:39.046Z,100641.75
2018-07-27T04:51:08.266Z,100642.85
2018-07-27T04:53:37.445Z,100645.11
2018-07-27T04:59:00.658Z,100636.94
2018-07-27T05:01:30.236Z,100641.73
2018-07-27T05:03:59.583Z,100647.32
2018-07-27T05:06:28.945Z,100645.27
2018-07-27T05:09:03.423Z,100645.41
2018-07-27T05:11:32.622Z,100644.13
2018-07-27T05:14:01.813Z,100645.84
2018-07-27T05:16:31.027Z,100639.66
2018-07-27T05:19:00.218Z,100647.23
2018-07-27T05:21:29.394Z,100649.73
2018-07-27T05:23:58.654Z,100651.00
2018-07-27T05:26:31.746Z,100649.88
2018-07-27T05:29:00.969Z,100653.91
2018-07-27T05:31:30.121Z,100655.02
2018-07-27T05:33:59.467Z,100654.14
2018-07-27T05:36:28.650Z,100651.35
2018-07-27T05:38:58.037Z,100650.51
2018-07-27T05:41:27.181Z,100652.99
2018-07-27T05:43:56.310Z,100646.66
2018-07-27T05:46:38.225Z,100646.77
2018-07-27T05:49:07.334Z,100646.02
2018-07-27T05:51:36.479Z,100649.81
2018-07-27T05:54:05.802Z,100652.06
2018-07-27T05:56:35.070Z,100657.13
2018-07-27T05:59:04.260Z,100650.80
2018-07-27T06:01:33.414Z,100650.69
2018-07-27T06:04:22.123Z,100639.08
2018-07-27T06:06:51.265Z,100641.67
2018-07-27T06:09:20.389Z,100646.58
2018-07-27T06:11:49.553Z,100639.69
2018-07-27T06:14:18.893Z,100640.73
2018-07-27T06:16:48.017Z,100639.59
2018-07-27T06:19:17.125Z,100639.47
2018-07-27T06:21:46.289Z,100642.84
2018-07-27T06:24:15.509Z,100639.67
2018-07-27T06:26:44.574Z,100634.97
2018-07-27T06:29:13.707Z,100631.42
2018-07-27T06:31:42.821Z,100639.87
2018-07-27T06:34:11.938Z,100627.33
2018-07-27T06:36:41.091Z,100631.75
2018-07-27T06:39:11.357Z,100638.41
2018-07-27T06:41:40.997Z,100642.44
2018-07-27T06:44:10.121Z,100638.36
2018-07-27T06:46:39.218Z,100638.67
2018-07-27T06:49:08.338Z,100634.49
2018-07-27T06:51:37.441Z,100644.66
2018-07-27T06:54:06.885Z,100640.52
2018-07-27T06:56:36.013Z,100632.92
2018-07-27T06:59:05.125Z,100629.72
2018-07-27T07:01:34.249Z,100634.64
2018-07-27T07:04:03.357Z,100631.48
2018-07-27T07:06:32.517Z,100634.98
2018-07-27T07:09:01.733Z,100631.95
2018-07-27T07:11:30.837Z,100639.16
2018-07-27T07:13:59.966Z,100631.55
2018-07-27T07:16:29.089Z,100630.41
2018-07-27T07:18:58.209Z,100638.03
2018-07-27T07:21:27.651Z,100633.87
2018-07-27T07:23:56.757Z,100619.77
2018-07-27T07:26:25.868Z,100624.33
2018-07-27T07:28:54.990Z,100624.00
2018-07-27T07:31:24.102Z,100616.72
2018-07-27T07:33:53.193Z,100618.17
2018-07-27T07:36:23.441Z,100622.03
2018-07-27T07:38:52.550Z,100614.52
2018-07-27T07:41:21.841Z,100610.88
2018-07-27T07:43:51.415Z,100611.98
2018-07-27T07:46:20.521Z,100603.12
2018-07-27T07:48:49.608Z,100610.77
2018-07-27T07:51:18.734Z,100606.58
2018-07-27T07:53:47.877Z,100601.75
2018-07-27T07:56:17.852Z,100601.83
2018-07-27T07:58:46.965Z,100603.39
2018-07-27T08:01:16.109Z,100598.62
2018-07-27T08:03:45.241Z,100592.16
2018-07-27T08:06:14.371Z,100593.70
2018-07-27T08:08:43.533Z,100592.71
2018-07-27T08:11:12.722Z,100590.98
2018-07-27T08:13:41.841Z,100590.16
2018-07-27T08:16:10.977Z,100582.33
2018-07-27T08:18:40.136Z,100578.17
2018-07-27T08:21:09.229Z,100572.05
2018-07-27T08:23:38.325Z,100577.67
2018-07-27T08:27:16.005Z,100578.67
2018-07-27T08:29:45.981Z,100576.23
2018-07-27T08:32:15.297Z,100575.87
2018-07-27T08:34:44.499Z,100578.09
2018-07-27T08:37:13.717Z,100570.07
2018-07-27T08:39:43.424Z,100563.89
2018-07-27T08:42:12.512Z,100561.32
2018-07-27T08:44:42.424Z,100563.53
2018-07-27T08:47:11.592Z,100557.72
2018-07-27T08:49:40.705Z,100560.66
2018-07-27T08:52:09.837Z,100557.14
2018-07-27T08:54:38.951Z,100544.27
2018-07-27T08:57:11.585Z,100540.34
2018-07-27T08:59:40.713Z,100539.42
2018-07-27T09:02:09.884Z,100538.75
2018-07-27T09:04:39.013Z,100528.92
2018-07-27T09:07:08.128Z,100526.54
2018-07-27T09:09:37.246Z,100526.23
2018-07-27T09:12:07.040Z,100522.84
2018-07-27T09:14:36.166Z,100518.89
2018-07-27T09:17:05.325Z,100522.53
2018-07-27T09:19:34.469Z,100519.43
2018-07-27T09:22:03.645Z,100525.56
2018-07-27T09:24:33.016Z,100509.84
2018-07-27T09:27:01.965Z,100517.09
2018-07-27T09:29:31.130Z,100511.91
2018-07-27T09:32:00.280Z,100518.13
2018-07-27T09:34:29.418Z,100513.63
2018-07-27T09:36:58.557Z,100508.37
2018-07-27T09:39:27.717Z,100512.69
2018-07-27T09:41:56.861Z,100512.70
2018-07-27T09:44:26.191Z,100498.38
2018-07-27T09:46:55.357Z,100504.80
2018-07-27T09:49:24.530Z,100509.42
2018-07-27T09:51:53.661Z,100502.48
2018-07-27T09:54:22.825Z,100495.61
2018-07-27T09:56:51.932Z,100494.37
2018-07-27T09:59:21.163Z,100496.93
2018-07-27T10:01:50.277Z,100490.39
2018-07-27T10:04:19.424Z,100488.70
2018-07-27T10:06:49.610Z,100489.95
2018-07-27T10:09:18.741Z,100488.08
2018-07-27T10:11:47.911Z,100489.47
2018-07-27T10:14:17.078Z,100477.47
2018-07-27T10:16:46.247Z,100481.03
2018-07-27T10:19:15.358Z,100485.30
2018-07-27T10:21:44.520Z,100484.98
2018-07-27T10:24:13.658Z,100482.82
2018-07-27T10:26:42.761Z,100483.84
2018-07-27T10:29:11.878Z,100477.47
2018-07-27T10:31:40.994Z,100472.06
2018-07-27T10:34:10.141Z,100461.95
2018-07-27T10:36:39.671Z,100475.73
2018-07-27T10:39:11.937Z,100474.27
2018-07-27T10:41:41.126Z,100472.62
2018-07-27T10:44:10.248Z,100464.48
2018-07-27T10:46:39.433Z,100470.77
2018-07-27T10:49:08.589Z,100470.61
2018-07-27T10:51:37.717Z,100454.83
2018-07-27T10:54:07.184Z,100462.79
2018-07-27T10:56:36.346Z,100460.09
2018-07-27T10:59:05.685Z,100453.87
2018-07-27T11:01:34.840Z,100456.39
2018-07-27T11:04:04.007Z,100456.89
2018-07-27T11:06:33.150Z,100449.18
2018-07-27T11:09:02.342Z,100442.20
2018-07-27T11:11:31.510Z,100434.45
2018-07-27T11:14:00.673Z,100437.80
2018-07-27T11:16:29.923Z,100428.82
2018-07-27T11:18:59.053Z,100431.81
2018-07-27T11:21:28.238Z,100435.59
2018-07-27T11:23:57.382Z,100428.55
2018-07-27T11:26:26.495Z,100421.56
2018-07-27T11:28:55.609Z,100422.05
2018-07-27T11:31:24.813Z,100423.77
2018-07-27T11:33:53.969Z,100412.08
2018-07-27T11:36:23.097Z,100408.55
2018-07-27T11:38:52.214Z,100404.75
2018-07-27T11:41:21.339Z,100408.27
2018-07-27T11:43:50.489Z,100402.38
2018-07-27T11:46:19.658Z,100413.42
2018-07-27T11:48:52.685Z,100406.48
2018-07-27T11:51:22.545Z,100398.22
2018-07-27T11:53:51.713Z,100395.81
2018-07-27T11:56:20.838Z,100391.41
2018-07-27T11:58:50.016Z,100380.80
2018-07-27T12:01:19.348Z,100388.48
2018-07-27T12:03:48.470Z,100378.45
2018-07-27T12:06:17.777Z,100379.27
2018-07-27T12:08:46.890Z,100385.69
2018-07-27T12:11:16.054Z,100379.55
2018-07-27T12:13:45.207Z,100374.88
2018-07-27T12:16:14.295Z,100376.73
2018-07-27T12:18:43.487Z,100380.72
2018-07-27T12:21:12.706Z,100368.36
2018-07-27T12:23:41.724Z,100358.38
2018-07-27T12:26:10.853Z,100363.00
2018-07-27T12:28:39.969Z,100364.73
2018-07-27T12:31:09.126Z,100360.77
2018-07-27T12:33:38.233Z,100361.04
2018-07-27T12:36:07.473Z,100353.17
2018-07-27T12:38:36.624Z,100357.61
2018-07-27T12:41:05.832Z,100349.38
2018-07-27T12:43:34.973Z,100357.95
2018-07-27T12:46:04.165Z,100352.38
2018-07-27T12:48:33.477Z,100347.30
2018-07-27T12:51:02.669Z,100345.44
2018-07-27T12:53:31.852Z,100341.55
2018-07-27T12:56:01.006Z,100343.88
2018-07-27T12:58:30.194Z,100337.79
2018-07-27T13:00:59.486Z,100335.16
2018-07-27T13:03:28.714Z,100331.41
2018-07-27T13:05:57.868Z,100324.66
2018-07-27T13:08:27.016Z,100313.30
2018-07-27T13:10:56.113Z,100309.15
2018-07-27T13:13:25.254Z,100312.56
2018-07-27T13:15:54.380Z,100308.67
2018-07-27T13:18:23.513Z,100311.20
2018-07-27T13:20:55.197Z,100303.20
2018-07-27T13:23:25.085Z,100306.72
2018-07-27T13:28:36.749Z,100303.20
2018-07-27T13:31:06.146Z,100298.13
2018-07-27T13:33:35.303Z,100292.51
2018-07-27T13:36:04.445Z,100294.05
2018-07-27T13:38:33.771Z,100287.56
2018-07-27T13:41:02.960Z,100286.31
2018-07-27T13:43:32.990Z,100286.01
2018-07-27T13:46:02.141Z,100278.90
2018-07-27T13:48:31.445Z,100279.77
2018-07-27T13:51:00.619Z,100266.48
2018-07-27T13:53:30.081Z,100263.89
2018-07-27T13:55:59.337Z,100265.45
2018-07-27T13:58:28.499Z,100260.82
2018-07-27T14:00:57.698Z,100254.20
2018-07-27T14:03:26.808Z,100253.16
2018-07-27T14:05:55.960Z,100254.88
2018-07-27T14:08:25.688Z,100246.36
2018-07-27T14:10:54.889Z,100238.61
2018-07-27T14:13:24.005Z,100228.38
2018-07-27T14:15:53.150Z,100236.57
2018-07-27T14:18:22.272Z,100237.98
2018-07-27T14:20:51.441Z,100233.85
2018-07-27T14:23:20.575Z,100235.74
2018-07-27T14:25:49.977Z,100228.45
2018-07-27T14:28:19.165Z,100236.63
2018-07-27T14:30:48.416Z,100225.65
2018-07-27T14:33:17.649Z,100226.22
2018-07-27T14:35:46.842Z,100212.20
2018-07-27T14:38:16.319Z,100227.92
2018-07-27T14:40:45.508Z,100220.80
2018-07-27T14:43:14.593Z,100220.80
2018-07-27T14:45:43.736Z,100204.66
2018-07-27T14:48:12.846Z,100205.38
2018-07-27T14:50:42.362Z,100206.55
2018-07-27T14:53:11.529Z,100202.63
2018-07-27T14:55:41.721Z,100197.80
2018-07-27T14:58:10.871Z,100200.89
2018-07-27T15:00:40.074Z,100190.18
2018-07-27T15:03:09.714Z,100193.05
2018-07-27T15:05:38.873Z,100194.53
2018-07-27T15:08:08.157Z,100191.44
2018-07-27T15:10:37.333Z,100192.70
2018-07-27T15:13:07.247Z,100189.01
2018-07-27T15:15:36.385Z,100181.15
2018-07-27T15:18:05.706Z,100180.67
2018-07-27T15:20:34.925Z,100179.03
2018-07-27T15:23:04.090Z,100193.49
2018-07-27T15:25:33.341Z,100184.86
2018-07-27T15:28:02.483Z,100179.75
2018-07-27T15:30:31.582Z,100176.98
2018-07-27T15:33:00.721Z,100173.78
2018-07-27T15:35:29.853Z,100179.09
2018-07-27T15:37:58.964Z,100167.66
2018-07-27T15:40:28.109Z,100173.03
2018-07-27T15:42:57.227Z,100173.84
2018-07-27T15:45:26.565Z,100175.13
2018-07-27T15:47:55.727Z,100169.13
2018-07-27T15:50:25.070Z,100156.22
2018-07-27T15:52:54.252Z,100155.13
2018-07-27T15:55:23.461Z,100148.36
2018-07-27T15:57:52.905Z,100146.41
2018-07-27T16:00:22.097Z,100143.16
2018-07-27T16:02:52.041Z,100142.16
2018-07-27T16:05:21.675Z,100141.01
2018-07-27T16:07:50.951Z,100134.48
2018-07-27T16:10:20.237Z,100134.48
2018-07-27T16:12:49.487Z,100131.02
2018-07-27T16:15:19.015Z,100130.23
2018-07-27T16:17:48.502Z,100122.93
2018-07-27T16:20:17.786Z,100129.59
2018-07-27T16:22:47.057Z,100122.37
2018-07-27T16:25:16.193Z,100113.52
2018-07-27T16:27:45.337Z,100120.20
2018-07-27T16:30:14.509Z,100112.94
2018-07-27T16:32:43.638Z,100109.14
2018-07-27T16:35:12.757Z,100109.02
2018-07-27T16:37:42.121Z,100109.52
2018-07-27T16:40:11.273Z,100111.47
2018-07-27T16:42:40.389Z,100111.59
2018-07-27T16:45:09.536Z,100105.91
2018-07-27T16:47:38.709Z,100102.64
2018-07-27T16:50:08.542Z,100107.45
2018-07-27T16:52:37.752Z,100109.19
2018-07-27T16:55:06.971Z,100109.81
2018-07-27T16:57:36.113Z,100114.27
2018-07-27T17:00:05.299Z,100108.05
2018-07-27T17:02:34.473Z,100106.62
2018-07-27T17:05:03.661Z,100106.87
2018-07-27T17:07:32.773Z,100102.77
2018-07-27T17:10:01.933Z,100100.18
2018-07-27T17:12:31.122Z,100107.94
2018-07-27T17:15:00.252Z,100107.08
2018-07-27T17:17:29.371Z,100105.16
2018-07-27T17:19:58.581Z,100101.30
2018-07-27T17:22:27.666Z,100104.48
2018-07-27T17:24:56.814Z,100104.86
2018-07-27T17:27:25.904Z,100097.25
2018-07-27T17:29:55.013Z,100091.70
2018-07-27T17:32:24.159Z,100093.12
2018-07-27T17:34:53.312Z,100094.82
2018-07-27T17:37:22.437Z,100090.77
2018-07-27T17:39:51.709Z,100082.02
2018-07-27T17:42:20.821Z,100083.67
2018-07-27T17:44:50.090Z,100081.52
2018-07-27T17:47:19.193Z,100086.08
2018-07-27T17:49:48.313Z,100082.37
2018-07-27T17:52:17.543Z,100078.63
2018-07-27T17:54:48.737Z,100078.19
2018-07-27T17:57:18.205Z,100079.04
2018-07-27T17:59:47.421Z,100082.44
2018-07-27T18:02:16.593Z,100080.39
2018-07-27T18:04:45.789Z,100078.70
2018-07-27T18:07:15.050Z,100079.08
2018-07-27T18:09:44.110Z,100068.28
2018-07-27T18:12:13.357Z,100070.98
2018-07-27T18:14:42.470Z,100071.32
2018-07-27T18:17:11.598Z,100069.66
2018-07-27T18:19:40.737Z,100072.69
2018-07-27T18:22:09.973Z,100068.09
2018-07-27T18:24:39.074Z,100068.26
2018-07-27T18:27:08.237Z,100070.09
2018-07-27T18:29:37.497Z,100076.00
2018-07-27T18:32:06.636Z,100071.77
2018-07-27T18:34:35.786Z,100067.81
2018-07-27T18:37:04.889Z,100070.55
2018-07-27T18:39:34.046Z,100064.95
2018-07-27T18:42:03.153Z,100065.45
2018-07-27T18:44:32.273Z,100073.17
2018-07-27T18:47:01.362Z,100067.45
2018-07-27T18:49:30.473Z,100068.11
2018-07-27T18:51:59.647Z,100077.08
2018-07-27T18:54:28.788Z,100085.91
2018-07-27T18:56:57.945Z,100077.73
2018-07-27T18:59:27.126Z,100075.80
2018-07-27T19:01:56.283Z,100074.06
2018-07-27T19:04:25.484Z,100073.60
2018-07-27T19:06:54.605Z,100068.55
2018-07-27T19:09:23.712Z,100072.26
2018-07-27T19:11:52.902Z,100075.66
2018-07-27T19:14:22.033Z,100069.34
2018-07-27T19:16:51.125Z,100070.19
2018-07-27T19:19:20.233Z,100074.86
2018-07-27T19:21:49.376Z,100075.48
2018-07-27T19:24:18.489Z,100068.57
2018-07-27T19:26:47.597Z,100079.66
2018-07-27T19:29:16.717Z,100079.16
2018-07-27T19:31:45.821Z,100076.61
2018-07-27T19:34:14.909Z,100086.14
2018-07-27T19:36:44.034Z,100081.63
2018-07-27T19:39:13.210Z,100083.27
2018-07-27T19:41:42.732Z,100080.09
2018-07-27T19:44:12.094Z,100081.08
2018-07-27T19:46:41.201Z,100078.77
2018-07-27T19:49:10.351Z,100078.70
2018-07-27T19:51:39.441Z,100084.42
2018-07-27T19:54:08.532Z,100081.48
2018-07-27T19:56:37.670Z,100082.47
2018-07-27T19:59:06.777Z,100088.89
2018-07-27T20:01:35.873Z,100084.03
2018-07-27T20:04:05.109Z,100083.27
2018-07-27T20:06:34.218Z,100090.88
2018-07-27T20:09:03.805Z,100093.80
2018-07-27T20:11:32.942Z,100095.33
2018-07-27T20:14:02.051Z,100095.70
2018-07-27T20:16:31.158Z,100095.23
2018-07-27T20:19:00.242Z,100095.41
2018-07-27T20:21:29.400Z,100100.86
2018-07-27T20:23:58.517Z,100097.81
2018-07-27T20:26:27.641Z,100095.83
2018-07-27T20:28:57.047Z,100099.70
2018-07-27T20:31:26.177Z,100100.78
2018-07-27T20:33:55.394Z,100107.29
2018-07-27T20:36:24.897Z,100101.48
2018-07-27T20:38:54.097Z,100103.62
2018-07-27T20:41:23.521Z,100096.19
2018-07-27T20:43:53.084Z,100100.90
2018-07-27T20:46:22.150Z,100096.39
2018-07-27T20:48:51.320Z,100100.22
2018-07-27T20:51:20.482Z,100090.40
2018-07-27T20:53:49.593Z,100100.50
2018-07-27T20:56:18.698Z,100087.33
2018-07-27T20:58:47.867Z,100090.80
2018-07-27T21:01:16.994Z,100093.75
2018-07-27T21:03:46.110Z,100093.02
2018-07-27T21:06:15.213Z,100092.59
2018-07-27T21:08:44.331Z,100093.23
2018-07-27T21:11:13.464Z,100084.99
2018-07-27T21:13:42.556Z,100083.04
2018-07-27T21:16:11.666Z,100088.61
2018-07-27T21:18:40.794Z,100084.96
2018-07-27T21:21:10.006Z,100086.34
2018-07-27T21:23:39.109Z,100079.31
2018-07-27T21:26:08.291Z,100086.30
2018-07-27T21:28:37.415Z,100089.23
2018-07-27T21:31:06.603Z,100086.58
2018-07-27T21:33:35.721Z,100093.09
2018-07-27T21:36:04.848Z,100088.32
2018-07-27T21:38:33.985Z,100090.73
2018-07-27T21:41:03.174Z,100092.83
2018-07-27T21:43:32.245Z,100090.52
2018-07-27T21:46:01.379Z,100094.34
2018-07-27T21:48:30.469Z,100093.12
2018-07-27T21:50:59.651Z,100085.73
2018-07-27T21:53:28.797Z,100084.29
2018-07-27T21:55:57.929Z,100085.29
2018-07-27T21:58:27.092Z,100087.11
2018-07-27T22:00:56.263Z,100080.63
2018-07-27T22:03:25.397Z,100081.72
2018-07-27T22:05:54.533Z,100073.63
2018-07-27T22:08:23.629Z,100073.38
2018-07-27T22:10:52.754Z,100075.05
2018-07-27T22:13:21.890Z,100072.88
2018-07-27T22:15:51.013Z,100068.29
2018-07-27T22:18:20.138Z,100065.03
2018-07-27T22:20:49.245Z,100062.63
2018-07-27T22:23:18.354Z,100069.80
2018-07-27T22:25:47.445Z,100072.22
2018-07-27T22:28:16.566Z,100076.30
2018-07-27T22:30:45.662Z,100072.93
2018-07-27T22:33:14.786Z,100075.59
2018-07-27T22:35:43.918Z,100078.83
2018-07-27T22:38:13.042Z,100072.58
2018-07-27T22:40:42.200Z,100070.37
2018-07-27T22:43:11.797Z,100070.37
2018-07-27T22:45:41.153Z,100072.18
2018-07-27T22:48:10.319Z,100067.21
2018-07-27T22:50:41.513Z,100068.30
2018-07-27T22:53:10.637Z,100067.47
2018-07-27T22:55:39.742Z,100061.41
2018-07-27T22:58:09.057Z,100059.34
2018-07-27T23:00:38.187Z,100058.11
2018-07-27T23:03:07.709Z,100057.52
2018-07-27T23:05:36.805Z,100059.09
2018-07-27T23:08:06.162Z,100061.23
2018-07-27T23:10:35.249Z,100059.91
2018-07-27T23:13:04.405Z,100056.16
2018-07-27T23:15:33.560Z,100054.47
2018-07-27T23:18:02.689Z,100055.19
2018-07-27T23:20:31.785Z,100054.20
2018-07-27T23:23:00.925Z,100051.17
2018-07-27T23:25:30.045Z,100051.09
2018-07-27T23:28:00.206Z,100050.58
2018-07-27T23:30:29.324Z,100049.63
2018-07-27T23:32:58.495Z,100047.67
2018-07-27T23:35:27.701Z,100051.67
2018-07-27T23:37:56.824Z,100055.19
2018-07-27T23:40:25.933Z,100058.31
2018-07-27T23:42:55.049Z,100053.04
2018-07-27T23:45:24.165Z,100056.17
2018-07-27T23:47:53.265Z,100047.00
2018-07-27T23:50:22.417Z,100036.58
2018-07-27T23:52:54.057Z,100036.91
2018-07-27T23:55:23.378Z,100030.07
2018-07-27T23:57:52.493Z,100028.66
